Mason City Municipal Airport
KMCW : now visible

Airfield :











YOU CAN JOIN US ON...

 
LOGIN :

Register | Disclaimer

   EN    FR    IT 

 









Legend :    VFR   Marginal VFR   IFR   Intensive IFR   Very Intensive IFR
Visi :
Ceiling :
>= 8 km
>= 3000ft
5 to 8 km
1000 to 3000 ft
1500m to 5 km
500 to 1000 ft
800 to 1500m
200 to 500 ft
< 800m
< 200 ft
Symbols :   Thunderstorms  Fog  Heavy snow  Heavy precipitations  Wind > 20 kt






- Airport Elevation : 1213 ft


KMCW - Mason City Municipal

CURRENT METAR :
  • 100153Z AUTO 00000KT 10SM CLR 21/19 A2991 RMK AO2 SLP114 T02060189

EXPIRED METARs :
  • 100053Z AUTO 31005KT 10SM CLR 21/19 A2991 RMK AO2 SLP115 T02110194
  • 092353Z AUTO 32007KT 10SM CLR 22/19 A2988 RMK AO2 RAE18 SLP108 P0001 60008 T02170189 10217 20178 51010

TAF KMCW
Valid from the 10 at 00:00 until the 11 at 00:00 UTC


092330Z 1000/1024 34008KT P6SM OVC140
FM100300 29005KT P6SM SKC
FM101600 30010KT P6SM FEW070
KZMP FIR / North America



MET'MAP, your aeronautical weather chart ! - Copyright ORBIFLY December 2007 - Disclaimer

ORBIFLY MET'MAP TEAM :

Programming & Development : Alexandra Zaïnal
Concept & original design : Baudouin d'Aumeries
Assistance for programming : Marc-Olivier Méhu
Technical & hardware support : Manuel Goepfert

Contact : metmap@orbifly.com




SOURCES & CREDITS :

   NOAA       Earth
Advisory